»·PEaware :: DAL241 KBUR-KSLC

DAL241 :: KBUR-KSLC

FLIGHT INFORMATION

Flight Status: Arrived
Operator:
Delta Air Lines
More flights by this operator :: More flights under this callsign
Pilot: Drew Leevy (13237)
Aircraft: MCDONNELL-DOUGLAS MD-88
(MD88)
More flights by this aircraft type
Origin: KBUR Bob Hope-Burbank
United States
Destination: KSLC Salt Lake City Intl
United States
More flights between these airports :: More routes between these airports
Route: SLAPP1 LAS Q70 BLIPP Q842 WINEN MLF DELTA4
File this flight plan on PilotEdge
Remarks:
Altitude:
(Current/Filed)
31,000ft
Speed:
(Current/Filed)
500kts
Departed: 25-Apr-17 07:33 PM
Arrived: 25-Apr-17 09:03 PM
Distance/Time
Traveled:
498nm/1:30
Distance/Time
To Go:
Arrived

Flight Plot

Page will automatically refresh every two minutes.

Flight plan parsing failed; only flown route is shown


Map Options




Map Legend


Flown Route
Filed Route
Departure Airport
Arrival Airport
Navaid (VOR, NDB)
Fix

Horizontal Profiles

Position Reports

Time Latitude Longitude Heading Altitude Ground
Speed
25-Apr-17 19:04 34.195783 -118.354953 137 783ft 0kts
25-Apr-17 19:05 34.195783 -118.354953 137 783ft 0kts
25-Apr-17 19:06 34.195783 -118.354953 137 783ft 0kts
25-Apr-17 19:07 34.195783 -118.354953 137 783ft 0kts
25-Apr-17 19:08 34.195783 -118.354953 137 783ft 0kts
25-Apr-17 19:09 34.195783 -118.354953 137 783ft 0kts
25-Apr-17 19:10 34.195783 -118.354953 137 783ft 0kts
25-Apr-17 19:11 34.195783 -118.354953 137 783ft 0kts
25-Apr-17 19:12 34.195783 -118.354953 137 783ft 0kts
25-Apr-17 19:13 34.195783 -118.354953 137 783ft 0kts
25-Apr-17 19:14 34.195783 -118.354953 137 783ft 0kts
25-Apr-17 19:15 34.195783 -118.354953 137 783ft 0kts
25-Apr-17 19:16 34.195783 -118.354953 137 783ft 0kts
25-Apr-17 19:17 34.195783 -118.354953 137 783ft 0kts
25-Apr-17 19:18 34.195783 -118.354953 137 783ft 0kts
25-Apr-17 19:19 34.195783 -118.354953 137 783ft 0kts
25-Apr-17 19:20 34.195783 -118.354953 137 783ft 0kts
25-Apr-17 19:21 34.195783 -118.354953 137 783ft 0kts
25-Apr-17 19:22 34.195783 -118.354953 137 783ft 0kts
25-Apr-17 19:23 34.195783 -118.354953 137 783ft 0kts
25-Apr-17 19:24 34.195783 -118.354953 137 783ft 0kts
25-Apr-17 19:25 34.195783 -118.354953 137 783ft 0kts
25-Apr-17 19:26 34.195896 -118.355082 136 783ft 3kts
25-Apr-17 19:27 34.196128 -118.355703 49 783ft 0kts
25-Apr-17 19:28 34.196128 -118.355703 49 783ft 0kts
25-Apr-17 19:29 34.196128 -118.355703 49 783ft 0kts
25-Apr-17 19:30 34.196134 -118.355695 48 783ft 0kts
25-Apr-17 19:31 34.195780 -118.355475 172 783ft 6kts
25-Apr-17 19:32 34.194623 -118.354967 193 783ft 0kts
25-Apr-17 19:33 34.194623 -118.354967 193 783ft 0kts
25-Apr-17 19:34 34.194169 -118.355101 278 783ft 3kts
25-Apr-17 19:35 34.195890 -118.355921 347 783ft 47kts
25-Apr-17 19:36 34.232611 -118.365687 346 1715ft 174kts
25-Apr-17 19:37 34.253728 -118.421249 282 3942ft 224kts
25-Apr-17 19:38 34.306462 -118.455005 351 6867ft 258kts
25-Apr-17 19:39 34.375018 -118.459734 352 10200ft 248kts
25-Apr-17 19:40 34.416762 -118.402789 75 12877ft 295kts
25-Apr-17 19:41 34.445299 -118.307259 44 14405ft 305kts
25-Apr-17 19:42 34.514917 -118.257876 6 16673ft 298kts
25-Apr-17 19:43 34.581932 -118.183233 46 18404ft 366kts
25-Apr-17 19:44 34.639567 -118.077811 51 20597ft 388kts
25-Apr-17 19:45 34.692049 -117.961688 66 22901ft 411kts
25-Apr-17 19:46 34.701285 -117.818042 81 22939ft 431kts
25-Apr-17 19:47 34.708213 -117.673140 82 22941ft 432kts
25-Apr-17 19:48 34.713660 -117.528043 79 22989ft 430kts
25-Apr-17 19:49 34.744911 -117.391530 65 22997ft 420kts
25-Apr-17 19:50 34.779202 -117.260736 66 22989ft 417kts
25-Apr-17 19:51 34.814335 -117.126620 66 22915ft 418kts
25-Apr-17 19:52 34.849752 -116.991926 66 22910ft 418kts
25-Apr-17 19:53 34.885250 -116.857483 65 23055ft 416kts
25-Apr-17 19:54 34.924575 -116.723896 51 24830ft 417kts
25-Apr-17 19:55 35.000320 -116.620866 40 26849ft 415kts
25-Apr-17 19:56 35.078461 -116.516611 40 28826ft 419kts
25-Apr-17 19:57 35.150653 -116.420140 39 30683ft 415kts
25-Apr-17 19:58 35.228885 -116.315821 40 30926ft 451kts
25-Apr-17 19:59 35.314374 -116.201750 40 30914ft 456kts
25-Apr-17 20:00 35.400080 -116.087619 40 30913ft 456kts
25-Apr-17 20:01 35.485761 -115.973660 40 30896ft 456kts
25-Apr-17 20:02 35.571405 -115.859892 40 30886ft 456kts
25-Apr-17 20:03 35.657490 -115.745722 40 30887ft 456kts
25-Apr-17 20:04 35.741652 -115.629265 41 30886ft 457kts
25-Apr-17 20:05 35.825399 -115.512748 41 30864ft 457kts
25-Apr-17 20:06 35.909325 -115.396121 41 30860ft 456kts
25-Apr-17 20:07 35.991937 -115.281521 41 30878ft 456kts
25-Apr-17 20:08 36.076130 -115.166231 38 30852ft 453kts
25-Apr-17 20:09 36.167034 -115.065667 34 30862ft 450kts
25-Apr-17 20:10 36.260772 -114.964323 34 30862ft 449kts
25-Apr-17 20:11 36.354977 -114.862481 34 30861ft 449kts
25-Apr-17 20:12 36.448733 -114.761799 34 30862ft 449kts
25-Apr-17 20:13 36.542346 -114.659499 34 30861ft 449kts
25-Apr-17 20:14 36.635489 -114.557343 34 30926ft 448kts
25-Apr-17 20:15 36.730950 -114.459529 27 30942ft 442kts
25-Apr-17 20:16 36.833571 -114.377520 25 30941ft 440kts
25-Apr-17 20:17 36.935183 -114.296244 26 30933ft 441kts
25-Apr-17 20:18 37.038161 -114.213879 26 30933ft 441kts
25-Apr-17 20:19 37.139772 -114.132648 26 30943ft 440kts
25-Apr-17 20:20 37.242928 -114.050221 26 30942ft 440kts
25-Apr-17 20:21 37.345932 -113.967960 26 30942ft 440kts
25-Apr-17 20:22 37.448374 -113.886190 26 30991ft 440kts
25-Apr-17 20:23 37.551331 -113.804055 26 30995ft 439kts
25-Apr-17 20:24 37.654393 -113.721878 25 30994ft 439kts
25-Apr-17 20:25 37.757169 -113.639974 25 30994ft 439kts
25-Apr-17 20:26 37.859958 -113.558103 25 30993ft 438kts
25-Apr-17 20:27 37.960502 -113.470262 36 30995ft 447kts
25-Apr-17 20:28 38.051929 -113.365051 35 30992ft 446kts
25-Apr-17 20:29 38.141581 -113.262742 35 30996ft 447kts
25-Apr-17 20:30 38.233614 -113.157830 35 30996ft 446kts
25-Apr-17 20:31 38.325933 -113.052710 35 30995ft 445kts
25-Apr-17 20:32 38.429832 -112.975751 16 30998ft 430kts
25-Apr-17 20:33 38.540366 -112.917085 17 30994ft 431kts
25-Apr-17 20:34 38.650354 -112.858153 17 30993ft 431kts
25-Apr-17 20:35 38.760803 -112.798978 17 30992ft 431kts
25-Apr-17 20:36 38.870871 -112.740320 16 30993ft 431kts
25-Apr-17 20:37 38.980609 -112.680863 17 30991ft 430kts
25-Apr-17 20:38 39.090710 -112.620865 17 30990ft 430kts
25-Apr-17 20:39 39.155144 -112.585764 17 31000ft 430kts
25-Apr-17 20:40 39.265010 -112.525938 16 30999ft 430kts
25-Apr-17 20:41 39.378093 -112.480408 9 30999ft 425kts
25-Apr-17 20:42 39.492243 -112.442292 9 30243ft 428kts
25-Apr-17 20:43 39.605570 -112.404363 9 28050ft 417kts
25-Apr-17 20:44 39.717353 -112.366985 9 25413ft 421kts
25-Apr-17 20:45 39.828597 -112.329778 10 22680ft 425kts
25-Apr-17 20:46 39.943066 -112.291498 10 19863ft 427kts
25-Apr-17 20:47 40.055071 -112.254061 10 16998ft 399kts
25-Apr-17 20:48 40.152925 -112.220782 12 15196ft 349kts
25-Apr-17 20:49 40.241267 -112.190189 9 13998ft 318kts
25-Apr-17 20:50 40.327700 -112.161949 12 13506ft 333kts
25-Apr-17 20:51 40.416888 -112.131136 14 12572ft 328kts
25-Apr-17 20:52 40.503941 -112.101312 14 11578ft 323kts
25-Apr-17 20:53 40.587234 -112.080581 1 10921ft 296kts
25-Apr-17 20:54 40.667639 -112.081831 355 10313ft 290kts
25-Apr-17 20:55 40.745585 -112.091182 355 9678ft 270kts
25-Apr-17 20:56 40.819265 -112.099934 355 9079ft 267kts
25-Apr-17 20:57 40.892147 -112.108623 355 8646ft 253kts
25-Apr-17 20:58 40.960213 -112.116746 355 8143ft 240kts
25-Apr-17 20:59 41.014844 -112.098499 80 7534ft 220kts
25-Apr-17 21:00 40.980151 -112.039972 140 7042ft 196kts
25-Apr-17 21:01 40.932239 -112.013674 175 6689ft 178kts
25-Apr-17 21:02 40.887084 -112.008524 174 5726ft 163kts
25-Apr-17 21:03 40.841899 -112.003259 174 4959ft 165kts
25-Apr-17 21:04 40.798959 -111.998263 174 4234ft 136kts
25-Apr-17 21:05 40.790393 -111.995129 166 4233ft 0kts
25-Apr-17 21:06 40.790393 -111.995129 166 4233ft 0kts
25-Apr-17 21:07 40.788461 -111.994834 174 4233ft 14kts
25-Apr-17 21:08 40.788476 -111.993892 355 4233ft 13kts
25-Apr-17 21:09 40.791166 -111.991100 84 4233ft 19kts
25-Apr-17 21:10 40.789360 -111.987492 166 4233ft 12kts
25-Apr-17 21:11 40.787962 -111.985498 71 4233ft 4kts
25-Apr-17 21:12 40.788010 -111.985307 71 4233ft 0kts
25-Apr-17 21:13 40.788010 -111.985307 71 4233ft 0kts

Navigation Log

Ident Type
Flight plan parsing failed, navigation log unavailable